sensor_id;sensor_type;location;lat;lon;timestamp;P1;durP1;ratioP1;P2;durP2;ratioP2
17347;SDS011;8791;50.876;4.342;2024-03-17T00:02:16;9.47;;;4.43;;
17347;SDS011;8791;50.876;4.342;2024-03-17T00:04:42;14.73;;;4.43;;
17347;SDS011;8791;50.876;4.342;2024-03-17T00:07:11;9.80;;;4.23;;
17347;SDS011;8791;50.876;4.342;2024-03-17T00:09:36;4.80;;;3.53;;
17347;SDS011;8791;50.876;4.342;2024-03-17T00:12:05;9.27;;;3.73;;
17347;SDS011;8791;50.876;4.342;2024-03-17T00:14:32;6.00;;;4.17;;
17347;SDS011;8791;50.876;4.342;2024-03-17T00:16:59;7.17;;;3.73;;
17347;SDS011;8791;50.876;4.342;2024-03-17T00:19:25;4.20;;;3.63;;
17347;SDS011;8791;50.876;4.342;2024-03-17T00:21:52;5.83;;;3.70;;
17347;SDS011;8791;50.876;4.342;2024-03-17T00:24:20;8.17;;;4.30;;
17347;SDS011;8791;50.876;4.342;2024-03-17T00:26:47;10.97;;;4.07;;
17347;SDS011;8791;50.876;4.342;2024-03-17T00:29:14;9.67;;;3.93;;
17347;SDS011;8791;50.876;4.342;2024-03-17T00:31:41;4.33;;;3.40;;
17347;SDS011;8791;50.876;4.342;2024-03-17T00:34:07;7.53;;;4.00;;
17347;SDS011;8791;50.876;4.342;2024-03-17T00:36:35;7.90;;;4.07;;
17347;SDS011;8791;50.876;4.342;2024-03-17T00:39:01;6.53;;;3.70;;
17347;SDS011;8791;50.876;4.342;2024-03-17T00:41:30;7.53;;;3.87;;
17347;SDS011;8791;50.876;4.342;2024-03-17T00:43:56;5.00;;;4.07;;
17347;SDS011;8791;50.876;4.342;2024-03-17T00:46:23;5.47;;;3.73;;
17347;SDS011;8791;50.876;4.342;2024-03-17T00:48:49;6.90;;;3.97;;
17347;SDS011;8791;50.876;4.342;2024-03-17T00:51:16;6.30;;;3.90;;
17347;SDS011;8791;50.876;4.342;2024-03-17T00:53:42;7.20;;;4.00;;
17347;SDS011;8791;50.876;4.342;2024-03-17T00:56:09;9.73;;;4.27;;
17347;SDS011;8791;50.876;4.342;2024-03-17T00:58:36;4.87;;;3.30;;
17347;SDS011;8791;50.876;4.342;2024-03-17T01:01:04;8.27;;;4.00;;
17347;SDS011;8791;50.876;4.342;2024-03-17T01:03:30;7.53;;;4.10;;
17347;SDS011;8791;50.876;4.342;2024-03-17T01:05:57;11.30;;;4.37;;
17347;SDS011;8791;50.876;4.342;2024-03-17T01:08:23;7.27;;;4.27;;
17347;SDS011;8791;50.876;4.342;2024-03-17T01:10:50;7.83;;;4.13;;
17347;SDS011;8791;50.876;4.342;2024-03-17T01:13:16;6.80;;;4.03;;
17347;SDS011;8791;50.876;4.342;2024-03-17T01:15:45;8.33;;;4.30;;
17347;SDS011;8791;50.876;4.342;2024-03-17T01:18:11;13.70;;;4.30;;
17347;SDS011;8791;50.876;4.342;2024-03-17T01:20:38;6.97;;;4.63;;
17347;SDS011;8791;50.876;4.342;2024-03-17T01:23:04;7.30;;;4.40;;
17347;SDS011;8791;50.876;4.342;2024-03-17T01:25:33;8.33;;;4.17;;
17347;SDS011;8791;50.876;4.342;2024-03-17T01:28:02;8.10;;;4.67;;
17347;SDS011;8791;50.876;4.342;2024-03-17T01:30:29;8.87;;;5.33;;
17347;SDS011;8791;50.876;4.342;2024-03-17T01:32:59;10.00;;;4.70;;
17347;SDS011;8791;50.876;4.342;2024-03-17T01:35:25;7.77;;;4.63;;
17347;SDS011;8791;50.876;4.342;2024-03-17T01:37:52;7.50;;;4.50;;
17347;SDS011;8791;50.876;4.342;2024-03-17T01:40:17;6.50;;;4.73;;
17347;SDS011;8791;50.876;4.342;2024-03-17T01:42:44;9.53;;;4.07;;
17347;SDS011;8791;50.876;4.342;2024-03-17T01:45:18;7.03;;;4.80;;
17347;SDS011;8791;50.876;4.342;2024-03-17T01:47:51;6.97;;;5.00;;
17347;SDS011;8791;50.876;4.342;2024-03-17T01:50:18;7.50;;;5.30;;
17347;SDS011;8791;50.876;4.342;2024-03-17T01:52:49;7.73;;;4.90;;
17347;SDS011;8791;50.876;4.342;2024-03-17T01:55:17;7.60;;;5.47;;
17347;SDS011;8791;50.876;4.342;2024-03-17T01:57:44;11.50;;;5.33;;
17347;SDS011;8791;50.876;4.342;2024-03-17T02:00:10;6.30;;;5.00;;
17347;SDS011;8791;50.876;4.342;2024-03-17T02:02:39;8.37;;;5.80;;
17347;SDS011;8791;50.876;4.342;2024-03-17T02:05:05;7.87;;;5.20;;
17347;SDS011;8791;50.876;4.342;2024-03-17T02:07:35;8.00;;;4.63;;
17347;SDS011;8791;50.876;4.342;2024-03-17T02:10:00;9.30;;;5.10;;
17347;SDS011;8791;50.876;4.342;2024-03-17T02:12:28;6.30;;;4.70;;
17347;SDS011;8791;50.876;4.342;2024-03-17T02:14:56;8.57;;;4.53;;
17347;SDS011;8791;50.876;4.342;2024-03-17T02:17:23;6.03;;;4.77;;
17347;SDS011;8791;50.876;4.342;2024-03-17T02:19:50;6.77;;;5.30;;
17347;SDS011;8791;50.876;4.342;2024-03-17T02:22:18;5.73;;;4.70;;
17347;SDS011;8791;50.876;4.342;2024-03-17T02:24:44;6.87;;;4.93;;
17347;SDS011;8791;50.876;4.342;2024-03-17T02:27:11;10.07;;;5.00;;
17347;SDS011;8791;50.876;4.342;2024-03-17T02:29:38;10.03;;;5.40;;
17347;SDS011;8791;50.876;4.342;2024-03-17T02:32:05;10.77;;;5.50;;
17347;SDS011;8791;50.876;4.342;2024-03-17T02:34:32;10.10;;;4.73;;
17347;SDS011;8791;50.876;4.342;2024-03-17T02:37:00;7.83;;;5.27;;
17347;SDS011;8791;50.876;4.342;2024-03-17T02:39:28;7.07;;;4.50;;
17347;SDS011;8791;50.876;4.342;2024-03-17T02:41:59;9.33;;;4.50;;
17347;SDS011;8791;50.876;4.342;2024-03-17T02:44:26;10.73;;;5.03;;
17347;SDS011;8791;50.876;4.342;2024-03-17T02:46:53;7.50;;;5.17;;
17347;SDS011;8791;50.876;4.342;2024-03-17T02:49:20;9.37;;;5.10;;
17347;SDS011;8791;50.876;4.342;2024-03-17T02:51:47;7.77;;;4.70;;
17347;SDS011;8791;50.876;4.342;2024-03-17T02:54:14;8.07;;;4.57;;
17347;SDS011;8791;50.876;4.342;2024-03-17T02:56:43;4.87;;;4.00;;
17347;SDS011;8791;50.876;4.342;2024-03-17T02:59:10;6.43;;;4.57;;
17347;SDS011;8791;50.876;4.342;2024-03-17T03:01:36;7.27;;;4.57;;
17347;SDS011;8791;50.876;4.342;2024-03-17T03:04:04;6.77;;;4.40;;
17347;SDS011;8791;50.876;4.342;2024-03-17T03:06:31;6.07;;;4.20;;
17347;SDS011;8791;50.876;4.342;2024-03-17T03:08:59;7.70;;;4.77;;
17347;SDS011;8791;50.876;4.342;2024-03-17T03:11:26;5.90;;;4.30;;
17347;SDS011;8791;50.876;4.342;2024-03-17T03:13:55;8.30;;;3.83;;
17347;SDS011;8791;50.876;4.342;2024-03-17T03:16:21;5.60;;;4.13;;
17347;SDS011;8791;50.876;4.342;2024-03-17T03:18:50;6.97;;;4.17;;
17347;SDS011;8791;50.876;4.342;2024-03-17T03:21:17;10.13;;;4.10;;
17347;SDS011;8791;50.876;4.342;2024-03-17T03:23:44;5.03;;;3.97;;
17347;SDS011;8791;50.876;4.342;2024-03-17T03:26:11;5.00;;;4.17;;
17347;SDS011;8791;50.876;4.342;2024-03-17T03:28:38;7.83;;;4.70;;
17347;SDS011;8791;50.876;4.342;2024-03-17T03:31:07;4.97;;;4.30;;
17347;SDS011;8791;50.876;4.342;2024-03-17T03:33:38;8.23;;;4.60;;
17347;SDS011;8791;50.876;4.342;2024-03-17T03:36:09;8.70;;;4.30;;
17347;SDS011;8791;50.876;4.342;2024-03-17T03:38:37;9.23;;;3.97;;
17347;SDS011;8791;50.876;4.342;2024-03-17T03:41:07;10.00;;;4.93;;
17347;SDS011;8791;50.876;4.342;2024-03-17T03:43:35;5.57;;;4.73;;
17347;SDS011;8791;50.876;4.342;2024-03-17T03:46:03;6.63;;;4.20;;
17347;SDS011;8791;50.876;4.342;2024-03-17T03:48:32;8.83;;;4.47;;
17347;SDS011;8791;50.876;4.342;2024-03-17T03:51:02;8.03;;;4.37;;
17347;SDS011;8791;50.876;4.342;2024-03-17T03:53:31;8.40;;;4.70;;
17347;SDS011;8791;50.876;4.342;2024-03-17T03:55:58;5.37;;;4.23;;
17347;SDS011;8791;50.876;4.342;2024-03-17T03:58:26;7.67;;;4.80;;
17347;SDS011;8791;50.876;4.342;2024-03-17T04:00:53;7.87;;;4.57;;
17347;SDS011;8791;50.876;4.342;2024-03-17T04:03:21;5.40;;;4.10;;
17347;SDS011;8791;50.876;4.342;2024-03-17T04:05:49;6.53;;;4.20;;
17347;SDS011;8791;50.876;4.342;2024-03-17T04:08:18;7.63;;;4.17;;
17347;SDS011;8791;50.876;4.342;2024-03-17T04:10:49;6.77;;;4.07;;
17347;SDS011;8791;50.876;4.342;2024-03-17T04:13:16;9.13;;;4.70;;
17347;SDS011;8791;50.876;4.342;2024-03-17T04:15:43;6.33;;;4.17;;
17347;SDS011;8791;50.876;4.342;2024-03-17T04:18:10;7.73;;;4.50;;
17347;SDS011;8791;50.876;4.342;2024-03-17T04:20:37;7.53;;;4.43;;
17347;SDS011;8791;50.876;4.342;2024-03-17T04:23:08;6.10;;;3.67;;
17347;SDS011;8791;50.876;4.342;2024-03-17T04:25:34;9.57;;;4.77;;
17347;SDS011;8791;50.876;4.342;2024-03-17T04:28:03;5.90;;;3.77;;
17347;SDS011;8791;50.876;4.342;2024-03-17T04:30:30;11.97;;;4.20;;
17347;SDS011;8791;50.876;4.342;2024-03-17T04:32:58;8.07;;;4.30;;
17347;SDS011;8791;50.876;4.342;2024-03-17T04:35:25;10.00;;;4.27;;
17347;SDS011;8791;50.876;4.342;2024-03-17T04:37:51;8.57;;;4.63;;
17347;SDS011;8791;50.876;4.342;2024-03-17T04:40:20;7.00;;;4.50;;
17347;SDS011;8791;50.876;4.342;2024-03-17T04:42:47;6.37;;;4.33;;
17347;SDS011;8791;50.876;4.342;2024-03-17T04:45:14;9.57;;;4.10;;
17347;SDS011;8791;50.876;4.342;2024-03-17T04:47:41;6.63;;;4.30;;
17347;SDS011;8791;50.876;4.342;2024-03-17T04:50:08;4.90;;;4.23;;
17347;SDS011;8791;50.876;4.342;2024-03-17T04:52:37;5.50;;;4.70;;
17347;SDS011;8791;50.876;4.342;2024-03-17T04:55:04;7.17;;;4.40;;
17347;SDS011;8791;50.876;4.342;2024-03-17T04:57:33;9.67;;;5.07;;
17347;SDS011;8791;50.876;4.342;2024-03-17T05:00:01;6.47;;;4.90;;
17347;SDS011;8791;50.876;4.342;2024-03-17T05:02:30;7.17;;;4.93;;
17347;SDS011;8791;50.876;4.342;2024-03-17T05:04:58;8.17;;;5.20;;
17347;SDS011;8791;50.876;4.342;2024-03-17T05:07:25;5.33;;;4.57;;
17347;SDS011;8791;50.876;4.342;2024-03-17T05:09:51;5.17;;;4.63;;
17347;SDS011;8791;50.876;4.342;2024-03-17T05:12:18;9.20;;;4.77;;
17347;SDS011;8791;50.876;4.342;2024-03-17T05:14:47;8.67;;;4.97;;
17347;SDS011;8791;50.876;4.342;2024-03-17T05:17:14;15.10;;;4.40;;
17347;SDS011;8791;50.876;4.342;2024-03-17T05:19:40;8.60;;;5.27;;
17347;SDS011;8791;50.876;4.342;2024-03-17T05:22:08;9.00;;;5.00;;
17347;SDS011;8791;50.876;4.342;2024-03-17T05:24:35;8.43;;;5.13;;
17347;SDS011;8791;50.876;4.342;2024-03-17T05:27:02;6.97;;;4.70;;
17347;SDS011;8791;50.876;4.342;2024-03-17T05:29:29;10.20;;;4.40;;
17347;SDS011;8791;50.876;4.342;2024-03-17T05:31:58;6.27;;;4.43;;
17347;SDS011;8791;50.876;4.342;2024-03-17T05:34:25;12.47;;;5.07;;
17347;SDS011;8791;50.876;4.342;2024-03-17T05:36:51;6.97;;;4.43;;
17347;SDS011;8791;50.876;4.342;2024-03-17T05:39:18;7.70;;;4.77;;
17347;SDS011;8791;50.876;4.342;2024-03-17T05:41:47;9.00;;;4.67;;
17347;SDS011;8791;50.876;4.342;2024-03-17T05:44:14;6.47;;;4.80;;
17347;SDS011;8791;50.876;4.342;2024-03-17T05:46:41;8.77;;;5.10;;
17347;SDS011;8791;50.876;4.342;2024-03-17T05:49:09;8.60;;;4.57;;
17347;SDS011;8791;50.876;4.342;2024-03-17T05:51:36;5.07;;;4.57;;
17347;SDS011;8791;50.876;4.342;2024-03-17T05:54:03;8.17;;;4.87;;
17347;SDS011;8791;50.876;4.342;2024-03-17T05:56:30;7.23;;;4.80;;
17347;SDS011;8791;50.876;4.342;2024-03-17T05:58:57;6.27;;;3.80;;
17347;SDS011;8791;50.876;4.342;2024-03-17T06:01:24;6.67;;;4.30;;
17347;SDS011;8791;50.876;4.342;2024-03-17T06:03:51;4.67;;;4.10;;
17347;SDS011;8791;50.876;4.342;2024-03-17T06:06:19;8.77;;;5.07;;
17347;SDS011;8791;50.876;4.342;2024-03-17T06:08:47;8.07;;;4.37;;
17347;SDS011;8791;50.876;4.342;2024-03-17T06:11:14;5.87;;;4.60;;
17347;SDS011;8791;50.876;4.342;2024-03-17T06:13:41;12.63;;;4.50;;
17347;SDS011;8791;50.876;4.342;2024-03-17T06:16:08;7.27;;;4.47;;
17347;SDS011;8791;50.876;4.342;2024-03-17T06:18:35;8.97;;;4.90;;
17347;SDS011;8791;50.876;4.342;2024-03-17T06:21:04;7.30;;;4.10;;
17347;SDS011;8791;50.876;4.342;2024-03-17T06:23:32;8.23;;;4.00;;
17347;SDS011;8791;50.876;4.342;2024-03-17T06:25:59;7.30;;;3.87;;
17347;SDS011;8791;50.876;4.342;2024-03-17T06:28:27;9.97;;;4.73;;
17347;SDS011;8791;50.876;4.342;2024-03-17T06:30:55;5.37;;;4.07;;
17347;SDS011;8791;50.876;4.342;2024-03-17T06:33:25;11.47;;;4.50;;
17347;SDS011;8791;50.876;4.342;2024-03-17T06:35:53;6.50;;;4.37;;
17347;SDS011;8791;50.876;4.342;2024-03-17T06:38:20;7.90;;;4.77;;
17347;SDS011;8791;50.876;4.342;2024-03-17T06:40:51;9.97;;;4.17;;
17347;SDS011;8791;50.876;4.342;2024-03-17T06:43:18;8.23;;;4.10;;
17347;SDS011;8791;50.876;4.342;2024-03-17T06:45:55;6.77;;;4.30;;
17347;SDS011;8791;50.876;4.342;2024-03-17T06:48:23;6.07;;;4.13;;
17347;SDS011;8791;50.876;4.342;2024-03-17T06:50:50;8.30;;;4.17;;
17347;SDS011;8791;50.876;4.342;2024-03-17T06:53:19;4.77;;;4.13;;
17347;SDS011;8791;50.876;4.342;2024-03-17T06:55:53;8.90;;;4.20;;
17347;SDS011;8791;50.876;4.342;2024-03-17T06:58:20;5.50;;;4.10;;
17347;SDS011;8791;50.876;4.342;2024-03-17T07:00:52;6.47;;;4.40;;
17347;SDS011;8791;50.876;4.342;2024-03-17T07:03:22;11.90;;;4.70;;
17347;SDS011;8791;50.876;4.342;2024-03-17T07:05:51;7.10;;;4.03;;
17347;SDS011;8791;50.876;4.342;2024-03-17T07:08:19;11.17;;;4.43;;
17347;SDS011;8791;50.876;4.342;2024-03-17T07:10:56;9.00;;;4.27;;
17347;SDS011;8791;50.876;4.342;2024-03-17T07:13:23;9.80;;;4.80;;
17347;SDS011;8791;50.876;4.342;2024-03-17T07:15:50;7.60;;;4.60;;
17347;SDS011;8791;50.876;4.342;2024-03-17T07:18:17;7.23;;;4.27;;
17347;SDS011;8791;50.876;4.342;2024-03-17T07:20:44;6.63;;;3.93;;
17347;SDS011;8791;50.876;4.342;2024-03-17T07:23:12;8.00;;;4.30;;
17347;SDS011;8791;50.876;4.342;2024-03-17T07:25:40;9.80;;;4.87;;
17347;SDS011;8791;50.876;4.342;2024-03-17T07:28:08;13.87;;;4.10;;
17347;SDS011;8791;50.876;4.342;2024-03-17T07:30:35;8.53;;;4.10;;
17347;SDS011;8791;50.876;4.342;2024-03-17T07:33:02;5.73;;;3.97;;
17347;SDS011;8791;50.876;4.342;2024-03-17T07:35:29;11.17;;;5.13;;
17347;SDS011;8791;50.876;4.342;2024-03-17T07:37:56;6.67;;;3.70;;
17347;SDS011;8791;50.876;4.342;2024-03-17T07:40:23;9.60;;;4.33;;
17347;SDS011;8791;50.876;4.342;2024-03-17T07:42:50;10.67;;;4.30;;
17347;SDS011;8791;50.876;4.342;2024-03-17T07:45:19;8.00;;;3.73;;
17347;SDS011;8791;50.876;4.342;2024-03-17T07:47:46;9.07;;;4.73;;
17347;SDS011;8791;50.876;4.342;2024-03-17T07:50:16;8.83;;;4.57;;
17347;SDS011;8791;50.876;4.342;2024-03-17T07:52:43;8.57;;;5.17;;
17347;SDS011;8791;50.876;4.342;2024-03-17T07:55:10;10.37;;;4.20;;
17347;SDS011;8791;50.876;4.342;2024-03-17T07:57:38;5.93;;;3.80;;
17347;SDS011;8791;50.876;4.342;2024-03-17T08:00:05;4.50;;;3.90;;
17347;SDS011;8791;50.876;4.342;2024-03-17T08:02:42;7.60;;;3.70;;
17347;SDS011;8791;50.876;4.342;2024-03-17T08:05:11;7.00;;;3.97;;
17347;SDS011;8791;50.876;4.342;2024-03-17T08:07:38;8.10;;;3.30;;
17347;SDS011;8791;50.876;4.342;2024-03-17T08:10:07;6.67;;;3.80;;
17347;SDS011;8791;50.876;4.342;2024-03-17T08:12:34;6.83;;;4.10;;
17347;SDS011;8791;50.876;4.342;2024-03-17T08:15:01;7.37;;;3.83;;
17347;SDS011;8791;50.876;4.342;2024-03-17T08:17:28;7.47;;;4.27;;
17347;SDS011;8791;50.876;4.342;2024-03-17T08:19:56;11.53;;;4.33;;
17347;SDS011;8791;50.876;4.342;2024-03-17T08:22:23;7.43;;;3.70;;
17347;SDS011;8791;50.876;4.342;2024-03-17T08:24:50;6.93;;;3.97;;
17347;SDS011;8791;50.876;4.342;2024-03-17T08:27:17;7.50;;;4.43;;
17347;SDS011;8791;50.876;4.342;2024-03-17T08:29:44;5.97;;;3.67;;
17347;SDS011;8791;50.876;4.342;2024-03-17T08:32:11;5.23;;;3.33;;
17347;SDS011;8791;50.876;4.342;2024-03-17T08:34:39;7.43;;;3.73;;
17347;SDS011;8791;50.876;4.342;2024-03-17T08:37:08;5.23;;;3.57;;
17347;SDS011;8791;50.876;4.342;2024-03-17T08:39:35;5.13;;;3.33;;
17347;SDS011;8791;50.876;4.342;2024-03-17T08:42:02;6.20;;;3.80;;
17347;SDS011;8791;50.876;4.342;2024-03-17T08:44:29;8.03;;;3.57;;
17347;SDS011;8791;50.876;4.342;2024-03-17T08:46:56;4.87;;;3.37;;
17347;SDS011;8791;50.876;4.342;2024-03-17T08:49:23;5.20;;;3.43;;
17347;SDS011;8791;50.876;4.342;2024-03-17T08:51:51;4.60;;;3.57;;
17347;SDS011;8791;50.876;4.342;2024-03-17T08:54:19;5.30;;;3.40;;
17347;SDS011;8791;50.876;4.342;2024-03-17T08:56:46;7.60;;;3.90;;
17347;SDS011;8791;50.876;4.342;2024-03-17T08:59:14;5.80;;;3.10;;
17347;SDS011;8791;50.876;4.342;2024-03-17T09:01:41;3.67;;;3.37;;
17347;SDS011;8791;50.876;4.342;2024-03-17T09:04:08;6.83;;;3.67;;
17347;SDS011;8791;50.876;4.342;2024-03-17T09:06:36;6.13;;;3.20;;
17347;SDS011;8791;50.876;4.342;2024-03-17T09:09:03;8.03;;;3.67;;
17347;SDS011;8791;50.876;4.342;2024-03-17T09:11:32;6.50;;;3.40;;
17347;SDS011;8791;50.876;4.342;2024-03-17T09:13:59;3.90;;;2.80;;
17347;SDS011;8791;50.876;4.342;2024-03-17T09:16:27;6.63;;;2.73;;
17347;SDS011;8791;50.876;4.342;2024-03-17T09:18:55;4.60;;;3.33;;
17347;SDS011;8791;50.876;4.342;2024-03-17T09:21:22;6.87;;;3.20;;
17347;SDS011;8791;50.876;4.342;2024-03-17T09:23:49;5.73;;;3.40;;
17347;SDS011;8791;50.876;4.342;2024-03-17T09:26:16;7.00;;;3.00;;
17347;SDS011;8791;50.876;4.342;2024-03-17T09:28:44;9.63;;;2.83;;
17347;SDS011;8791;50.876;4.342;2024-03-17T09:31:11;5.47;;;3.00;;
17347;SDS011;8791;50.876;4.342;2024-03-17T09:33:38;6.77;;;3.50;;
17347;SDS011;8791;50.876;4.342;2024-03-17T09:36:06;9.23;;;3.33;;
17347;SDS011;8791;50.876;4.342;2024-03-17T09:38:36;9.00;;;2.93;;
17347;SDS011;8791;50.876;4.342;2024-03-17T09:41:03;5.83;;;2.90;;
17347;SDS011;8791;50.876;4.342;2024-03-17T09:43:33;4.80;;;2.80;;
17347;SDS011;8791;50.876;4.342;2024-03-17T09:46:03;6.17;;;3.17;;
17347;SDS011;8791;50.876;4.342;2024-03-17T09:48:31;8.67;;;3.20;;
17347;SDS011;8791;50.876;4.342;2024-03-17T09:50:58;9.30;;;3.30;;
17347;SDS011;8791;50.876;4.342;2024-03-17T09:53:27;7.43;;;3.07;;
17347;SDS011;8791;50.876;4.342;2024-03-17T09:55:57;5.07;;;2.50;;
17347;SDS011;8791;50.876;4.342;2024-03-17T09:58:25;2.77;;;2.37;;
17347;SDS011;8791;50.876;4.342;2024-03-17T10:00:52;6.07;;;3.17;;
17347;SDS011;8791;50.876;4.342;2024-03-17T10:06:11;5.30;;;2.70;;
17347;SDS011;8791;50.876;4.342;2024-03-17T10:08:45;8.67;;;2.83;;
17347;SDS011;8791;50.876;4.342;2024-03-17T10:11:13;6.83;;;3.00;;
17347;SDS011;8791;50.876;4.342;2024-03-17T10:13:42;6.07;;;2.70;;
17347;SDS011;8791;50.876;4.342;2024-03-17T10:16:22;3.80;;;2.77;;
17347;SDS011;8791;50.876;4.342;2024-03-17T10:19:00;6.20;;;2.83;;
17347;SDS011;8791;50.876;4.342;2024-03-17T10:21:35;13.27;;;3.10;;
17347;SDS011;8791;50.876;4.342;2024-03-17T10:24:07;6.50;;;3.10;;
17347;SDS011;8791;50.876;4.342;2024-03-17T10:26:41;9.50;;;3.30;;
17347;SDS011;8791;50.876;4.342;2024-03-17T10:32:02;4.57;;;2.60;;
17347;SDS011;8791;50.876;4.342;2024-03-17T10:34:31;11.73;;;3.07;;
17347;SDS011;8791;50.876;4.342;2024-03-17T10:37:05;6.43;;;2.60;;
17347;SDS011;8791;50.876;4.342;2024-03-17T10:39:36;6.07;;;3.20;;
17347;SDS011;8791;50.876;4.342;2024-03-17T10:42:03;5.97;;;2.70;;
17347;SDS011;8791;50.876;4.342;2024-03-17T10:44:32;6.33;;;2.83;;
17347;SDS011;8791;50.876;4.342;2024-03-17T10:47:00;9.40;;;2.83;;
17347;SDS011;8791;50.876;4.342;2024-03-17T10:49:31;6.20;;;3.23;;
17347;SDS011;8791;50.876;4.342;2024-03-17T10:52:00;4.53;;;2.50;;
17347;SDS011;8791;50.876;4.342;2024-03-17T10:54:29;10.47;;;3.07;;
17347;SDS011;8791;50.876;4.342;2024-03-17T10:56:59;6.37;;;3.10;;
17347;SDS011;8791;50.876;4.342;2024-03-17T10:59:38;7.40;;;3.13;;
17347;SDS011;8791;50.876;4.342;2024-03-17T11:02:08;11.60;;;3.13;;
17347;SDS011;8791;50.876;4.342;2024-03-17T11:04:49;5.63;;;2.90;;
17347;SDS011;8791;50.876;4.342;2024-03-17T11:07:17;8.17;;;2.93;;
17347;SDS011;8791;50.876;4.342;2024-03-17T11:09:46;7.20;;;2.53;;
17347;SDS011;8791;50.876;4.342;2024-03-17T11:21:24;7.70;;;2.42;;
17347;SDS011;8791;50.876;4.342;2024-03-17T11:23:57;7.03;;;2.63;;
17347;SDS011;8791;50.876;4.342;2024-03-17T11:26:29;9.50;;;2.80;;
17347;SDS011;8791;50.876;4.342;2024-03-17T11:28:57;9.50;;;3.13;;
17347;SDS011;8791;50.876;4.342;2024-03-17T11:31:42;7.63;;;2.65;;
17347;SDS011;8791;50.876;4.342;2024-03-17T11:37:00;5.20;;;2.78;;
17347;SDS011;8791;50.876;4.342;2024-03-17T11:39:46;6.65;;;2.05;;
17347;SDS011;8791;50.876;4.342;2024-03-17T11:42:22;5.05;;;2.38;;
17347;SDS011;8791;50.876;4.342;2024-03-17T11:44:55;6.70;;;2.47;;
17347;SDS011;8791;50.876;4.342;2024-03-17T11:47:39;6.43;;;2.00;;
17347;SDS011;8791;50.876;4.342;2024-03-17T11:50:08;5.32;;;1.92;;
17347;SDS011;8791;50.876;4.342;2024-03-17T11:52:39;5.20;;;2.03;;
17347;SDS011;8791;50.876;4.342;2024-03-17T11:55:15;5.10;;;1.80;;
17347;SDS011;8791;50.876;4.342;2024-03-17T11:57:42;7.55;;;1.80;;
17347;SDS011;8791;50.876;4.342;2024-03-17T12:00:18;4.95;;;1.50;;
17347;SDS011;8791;50.876;4.342;2024-03-17T12:02:48;4.75;;;1.90;;
17347;SDS011;8791;50.876;4.342;2024-03-17T12:05:16;5.35;;;1.60;;
17347;SDS011;8791;50.876;4.342;2024-03-17T12:07:43;7.32;;;1.70;;
17347;SDS011;8791;50.876;4.342;2024-03-17T12:10:11;7.60;;;1.70;;
17347;SDS011;8791;50.876;4.342;2024-03-17T12:12:39;3.60;;;1.50;;
17347;SDS011;8791;50.876;4.342;2024-03-17T12:15:15;5.50;;;1.70;;
17347;SDS011;8791;50.876;4.342;2024-03-17T12:17:42;8.63;;;1.63;;
17347;SDS011;8791;50.876;4.342;2024-03-17T12:20:19;3.50;;;1.60;;
17347;SDS011;8791;50.876;4.342;2024-03-17T12:22:47;10.40;;;1.80;;
17347;SDS011;8791;50.876;4.342;2024-03-17T12:25:16;5.10;;;1.60;;
17347;SDS011;8791;50.876;4.342;2024-03-17T12:27:44;6.45;;;1.50;;
17347;SDS011;8791;50.876;4.342;2024-03-17T12:30:13;4.88;;;2.17;;
17347;SDS011;8791;50.876;4.342;2024-03-17T12:32:40;5.15;;;1.80;;
17347;SDS011;8791;50.876;4.342;2024-03-17T12:35:12;5.97;;;1.80;;
17347;SDS011;8791;50.876;4.342;2024-03-17T12:37:40;3.42;;;1.90;;
17347;SDS011;8791;50.876;4.342;2024-03-17T12:40:17;6.13;;;1.77;;
17347;SDS011;8791;50.876;4.342;2024-03-17T12:42:47;8.13;;;1.95;;
17347;SDS011;8791;50.876;4.342;2024-03-17T12:45:19;6.45;;;1.98;;
17347;SDS011;8791;50.876;4.342;2024-03-17T12:47:47;5.10;;;1.55;;
17347;SDS011;8791;50.876;4.342;2024-03-17T12:50:20;6.25;;;1.65;;
17347;SDS011;8791;50.876;4.342;2024-03-17T12:52:54;4.18;;;1.83;;
17347;SDS011;8791;50.876;4.342;2024-03-17T12:55:24;5.57;;;1.35;;
17347;SDS011;8791;50.876;4.342;2024-03-17T12:58:09;10.48;;;1.70;;
17347;SDS011;8791;50.876;4.342;2024-03-17T13:00:58;6.65;;;2.25;;
17347;SDS011;8791;50.876;4.342;2024-03-17T13:03:26;9.95;;;3.47;;
17347;SDS011;8791;50.876;4.342;2024-03-17T13:05:56;7.40;;;3.72;;
17347;SDS011;8791;50.876;4.342;2024-03-17T13:08:24;10.13;;;3.03;;
17347;SDS011;8791;50.876;4.342;2024-03-17T13:10:52;6.68;;;3.78;;
17347;SDS011;8791;50.876;4.342;2024-03-17T13:13:19;10.77;;;4.50;;
17347;SDS011;8791;50.876;4.342;2024-03-17T13:15:46;4.57;;;2.45;;
17347;SDS011;8791;50.876;4.342;2024-03-17T13:18:15;8.73;;;2.50;;
17347;SDS011;8791;50.876;4.342;2024-03-17T13:20:45;6.90;;;1.90;;
17347;SDS011;8791;50.876;4.342;2024-03-17T13:23:14;8.80;;;1.80;;
17347;SDS011;8791;50.876;4.342;2024-03-17T13:25:42;4.57;;;1.80;;
17347;SDS011;8791;50.876;4.342;2024-03-17T13:28:11;7.87;;;1.90;;
17347;SDS011;8791;50.876;4.342;2024-03-17T13:30:38;5.63;;;2.40;;
17347;SDS011;8791;50.876;4.342;2024-03-17T13:33:07;8.68;;;3.45;;
17347;SDS011;8791;50.876;4.342;2024-03-17T13:35:35;10.27;;;3.23;;
17347;SDS011;8791;50.876;4.342;2024-03-17T13:38:04;10.83;;;2.37;;
17347;SDS011;8791;50.876;4.342;2024-03-17T13:40:33;5.73;;;1.83;;
17347;SDS011;8791;50.876;4.342;2024-03-17T13:43:00;8.97;;;1.97;;
17347;SDS011;8791;50.876;4.342;2024-03-17T13:45:30;8.70;;;2.70;;
17347;SDS011;8791;50.876;4.342;2024-03-17T13:48:01;13.83;;;3.83;;
17347;SDS011;8791;50.876;4.342;2024-03-17T13:50:30;7.13;;;3.37;;
17347;SDS011;8791;50.876;4.342;2024-03-17T13:52:57;9.03;;;3.30;;
17347;SDS011;8791;50.876;4.342;2024-03-17T13:55:24;8.70;;;3.40;;
17347;SDS011;8791;50.876;4.342;2024-03-17T13:57:52;7.60;;;3.00;;
17347;SDS011;8791;50.876;4.342;2024-03-17T14:00:21;8.68;;;3.45;;
17347;SDS011;8791;50.876;4.342;2024-03-17T14:02:51;9.77;;;3.78;;
17347;SDS011;8791;50.876;4.342;2024-03-17T14:05:19;6.95;;;3.47;;
17347;SDS011;8791;50.876;4.342;2024-03-17T14:07:47;9.63;;;3.90;;
17347;SDS011;8791;50.876;4.342;2024-03-17T14:10:14;6.03;;;2.33;;
17347;SDS011;8791;50.876;4.342;2024-03-17T14:12:42;5.83;;;2.07;;
17347;SDS011;8791;50.876;4.342;2024-03-17T14:15:10;8.27;;;3.40;;
17347;SDS011;8791;50.876;4.342;2024-03-17T14:17:38;5.13;;;2.60;;
17347;SDS011;8791;50.876;4.342;2024-03-17T14:20:07;6.53;;;2.70;;
17347;SDS011;8791;50.876;4.342;2024-03-17T14:22:35;10.73;;;3.00;;
17347;SDS011;8791;50.876;4.342;2024-03-17T14:25:03;5.07;;;2.23;;
17347;SDS011;8791;50.876;4.342;2024-03-17T14:27:30;6.20;;;2.27;;
17347;SDS011;8791;50.876;4.342;2024-03-17T14:29:57;9.07;;;2.03;;
17347;SDS011;8791;50.876;4.342;2024-03-17T14:32:24;8.00;;;2.30;;
17347;SDS011;8791;50.876;4.342;2024-03-17T14:34:53;7.23;;;2.50;;
17347;SDS011;8791;50.876;4.342;2024-03-17T14:37:21;9.17;;;2.43;;
17347;SDS011;8791;50.876;4.342;2024-03-17T14:39:48;6.87;;;2.17;;
17347;SDS011;8791;50.876;4.342;2024-03-17T14:42:15;6.90;;;2.50;;
17347;SDS011;8791;50.876;4.342;2024-03-17T14:44:42;4.97;;;2.10;;
17347;SDS011;8791;50.876;4.342;2024-03-17T14:47:09;6.13;;;2.03;;
17347;SDS011;8791;50.876;4.342;2024-03-17T14:49:37;5.23;;;2.00;;
17347;SDS011;8791;50.876;4.342;2024-03-17T14:52:03;7.67;;;2.63;;
17347;SDS011;8791;50.876;4.342;2024-03-17T14:54:32;6.67;;;2.17;;
17347;SDS011;8791;50.876;4.342;2024-03-17T14:56:59;7.53;;;2.37;;
17347;SDS011;8791;50.876;4.342;2024-03-17T14:59:26;4.67;;;1.73;;
17347;SDS011;8791;50.876;4.342;2024-03-17T15:01:53;4.43;;;2.13;;
17347;SDS011;8791;50.876;4.342;2024-03-17T15:04:20;5.27;;;2.67;;
17347;SDS011;8791;50.876;4.342;2024-03-17T15:06:48;6.47;;;1.90;;
17347;SDS011;8791;50.876;4.342;2024-03-17T15:09:15;5.37;;;1.60;;
17347;SDS011;8791;50.876;4.342;2024-03-17T15:11:45;4.63;;;1.80;;
17347;SDS011;8791;50.876;4.342;2024-03-17T15:14:12;5.27;;;1.87;;
17347;SDS011;8791;50.876;4.342;2024-03-17T15:16:39;5.10;;;1.80;;
17347;SDS011;8791;50.876;4.342;2024-03-17T15:19:07;5.47;;;2.00;;
17347;SDS011;8791;50.876;4.342;2024-03-17T15:21:34;5.70;;;2.30;;
17347;SDS011;8791;50.876;4.342;2024-03-17T15:24:01;3.13;;;1.30;;
17347;SDS011;8791;50.876;4.342;2024-03-17T15:26:28;7.20;;;2.00;;